sensor_id;sensor_type;location;lat;lon;timestamp;pressure;altitude;pressure_sealevel;temperature;humidity
67740;BME280;54536;50.090;14.420;2022-11-27T00:00:28;100847.69;;;9.24;60.37
67740;BME280;54536;50.090;14.420;2022-11-27T00:03:15;100840.19;;;9.18;60.75
67740;BME280;54536;50.090;14.420;2022-11-27T00:05:53;100843.94;;;9.13;60.59
67740;BME280;54536;50.090;14.420;2022-11-27T00:08:20;100840.19;;;9.03;60.52
67740;BME280;54536;50.090;14.420;2022-11-27T00:10:46;100828.91;;;9.01;61.50
67740;BME280;54536;50.090;14.420;2022-11-27T00:13:12;100828.72;;;8.90;61.27
67740;BME280;54536;50.090;14.420;2022-11-27T00:15:39;100834.16;;;9.01;61.83
67740;BME280;54536;50.090;14.420;2022-11-27T00:18:05;100831.34;;;8.90;62.00
67740;BME280;54536;50.090;14.420;2022-11-27T00:20:31;100821.09;;;8.85;61.81
67740;BME280;54536;50.090;14.420;2022-11-27T00:22:57;100816.16;;;8.95;62.20
67740;BME280;54536;50.090;14.420;2022-11-27T00:25:23;100814.13;;;9.00;61.12
67740;BME280;54536;50.090;14.420;2022-11-27T00:27:49;100813.94;;;9.03;61.18
67740;BME280;54536;50.090;14.420;2022-11-27T00:30:16;100816.78;;;8.70;61.51
67740;BME280;54536;50.090;14.420;2022-11-27T00:32:43;100820.53;;;8.50;62.25
67740;BME280;54536;50.090;14.420;2022-11-27T00:35:10;100819.13;;;8.75;61.65
67740;BME280;54536;50.090;14.420;2022-11-27T00:37:36;100818.09;;;8.47;61.53
67740;BME280;54536;50.090;14.420;2022-11-27T00:40:02;100823.50;;;8.44;62.27
67740;BME280;54536;50.090;14.420;2022-11-27T00:42:28;100821.28;;;8.52;60.87
67740;BME280;54536;50.090;14.420;2022-11-27T00:44:54;100830.66;;;8.56;61.18
67740;BME280;54536;50.090;14.420;2022-11-27T00:47:20;100823.88;;;8.68;60.92
67740;BME280;54536;50.090;14.420;2022-11-27T00:49:47;100831.03;;;8.50;61.29
67740;BME280;54536;50.090;14.420;2022-11-27T00:52:13;100824.00;;;8.35;61.67
67740;BME280;54536;50.090;14.420;2022-11-27T00:54:39;100831.84;;;8.35;61.42
67740;BME280;54536;50.090;14.420;2022-11-27T00:57:05;100837.34;;;8.30;61.93
67740;BME280;54536;50.090;14.420;2022-11-27T00:59:32;100834.03;;;8.58;61.59
67740;BME280;54536;50.090;14.420;2022-11-27T01:01:57;100836.59;;;8.28;61.13
67740;BME280;54536;50.090;14.420;2022-11-27T01:04:24;100837.78;;;8.23;61.36
67740;BME280;54536;50.090;14.420;2022-11-27T01:06:50;100834.66;;;8.00;61.90
67740;BME280;54536;50.090;14.420;2022-11-27T01:09:16;100838.03;;;8.02;62.80
67740;BME280;54536;50.090;14.420;2022-11-27T01:11:42;100834.00;;;8.12;61.78
67740;BME280;54536;50.090;14.420;2022-11-27T01:14:15;100835.25;;;8.21;61.99
67740;BME280;54536;50.090;14.420;2022-11-27T01:16:41;100829.47;;;8.30;62.24
67740;BME280;54536;50.090;14.420;2022-11-27T01:19:09;100834.66;;;8.32;61.78
67740;BME280;54536;50.090;14.420;2022-11-27T01:21:36;100830.69;;;8.25;61.39
67740;BME280;54536;50.090;14.420;2022-11-27T01:24:03;100836.84;;;8.24;61.50
67740;BME280;54536;50.090;14.420;2022-11-27T01:26:30;100831.63;;;8.39;61.23
67740;BME280;54536;50.090;14.420;2022-11-27T01:28:58;100818.66;;;8.20;61.62
67740;BME280;54536;50.090;14.420;2022-11-27T01:31:26;100829.75;;;7.94;61.37
67740;BME280;54536;50.090;14.420;2022-11-27T01:33:56;100836.88;;;8.08;61.63
67740;BME280;54536;50.090;14.420;2022-11-27T01:36:24;100835.50;;;8.16;61.40
67740;BME280;54536;50.090;14.420;2022-11-27T01:38:50;100838.28;;;7.97;62.49
67740;BME280;54536;50.090;14.420;2022-11-27T01:41:31;100827.41;;;8.05;61.50
67740;BME280;54536;50.090;14.420;2022-11-27T01:47:02;100822.34;;;8.02;61.89
67740;BME280;54536;50.090;14.420;2022-11-27T01:49:47;100825.56;;;7.91;61.68
67740;BME280;54536;50.090;14.420;2022-11-27T01:52:30;100817.50;;;8.10;62.20
67740;BME280;54536;50.090;14.420;2022-11-27T01:55:27;100811.91;;;8.16;61.61
67740;BME280;54536;50.090;14.420;2022-11-27T01:58:00;100800.38;;;8.05;60.88
67740;BME280;54536;50.090;14.420;2022-11-27T02:00:27;100808.47;;;7.84;61.46
67740;BME280;54536;50.090;14.420;2022-11-27T02:02:53;100804.16;;;7.83;62.23
67740;BME280;54536;50.090;14.420;2022-11-27T02:05:22;100795.88;;;7.75;62.05
67740;BME280;54536;50.090;14.420;2022-11-27T02:07:50;100796.91;;;7.72;62.47
67740;BME280;54536;50.090;14.420;2022-11-27T02:10:18;100800.09;;;7.78;62.69
67740;BME280;54536;50.090;14.420;2022-11-27T02:13:08;100797.56;;;7.60;62.17
67740;BME280;54536;50.090;14.420;2022-11-27T02:15:45;100800.34;;;7.57;62.43
67740;BME280;54536;50.090;14.420;2022-11-27T02:18:56;100798.00;;;7.68;62.36
67740;BME280;54536;50.090;14.420;2022-11-27T02:21:38;100796.38;;;7.66;62.29
67740;BME280;54536;50.090;14.420;2022-11-27T02:27:51;100783.13;;;7.20;62.40
67740;BME280;54536;50.090;14.420;2022-11-27T02:30:21;100775.72;;;7.28;62.68
67740;BME280;54536;50.090;14.420;2022-11-27T02:32:58;100772.78;;;7.34;62.64
67740;BME280;54536;50.090;14.420;2022-11-27T02:38:28;100787.34;;;7.22;63.16
67740;BME280;54536;50.090;14.420;2022-11-27T02:41:05;100787.69;;;6.99;63.00
67740;BME280;54536;50.090;14.420;2022-11-27T02:43:37;100785.84;;;7.01;62.84
67740;BME280;54536;50.090;14.420;2022-11-27T02:46:08;100776.69;;;6.92;63.07
67740;BME280;54536;50.090;14.420;2022-11-27T02:48:45;100773.19;;;6.93;62.92
67740;BME280;54536;50.090;14.420;2022-11-27T02:51:16;100782.78;;;6.93;63.54
67740;BME280;54536;50.090;14.420;2022-11-27T02:53:50;100771.25;;;6.97;63.55
67740;BME280;54536;50.090;14.420;2022-11-27T02:56:22;100766.09;;;6.95;63.81
67740;BME280;54536;50.090;14.420;2022-11-27T02:58:54;100765.66;;;6.70;63.59
67740;BME280;54536;50.090;14.420;2022-11-27T03:01:22;100769.09;;;6.88;63.19
67740;BME280;54536;50.090;14.420;2022-11-27T03:03:54;100768.03;;;6.74;63.79
67740;BME280;54536;50.090;14.420;2022-11-27T03:06:28;100768.69;;;6.95;62.89
67740;BME280;54536;50.090;14.420;2022-11-27T03:09:05;100757.56;;;6.92;62.76
67740;BME280;54536;50.090;14.420;2022-11-27T03:11:32;100754.78;;;6.95;63.20
67740;BME280;54536;50.090;14.420;2022-11-27T03:14:05;100769.88;;;6.72;63.08
67740;BME280;54536;50.090;14.420;2022-11-27T03:19:36;100764.28;;;6.45;64.03
67740;BME280;54536;50.090;14.420;2022-11-27T03:22:04;100762.44;;;6.65;64.24
67740;BME280;54536;50.090;14.420;2022-11-27T03:24:33;100759.97;;;6.62;64.14
67740;BME280;54536;50.090;14.420;2022-11-27T03:27:02;100757.50;;;6.59;63.25
67740;BME280;54536;50.090;14.420;2022-11-27T03:29:38;100758.56;;;6.37;64.51
67740;BME280;54536;50.090;14.420;2022-11-27T03:32:06;100766.94;;;6.44;64.23
67740;BME280;54536;50.090;14.420;2022-11-27T03:34:33;100767.72;;;6.63;63.77
67740;BME280;54536;50.090;14.420;2022-11-27T03:37:00;100757.19;;;6.47;64.28
67740;BME280;54536;50.090;14.420;2022-11-27T03:39:28;100759.25;;;6.41;64.30
67740;BME280;54536;50.090;14.420;2022-11-27T03:58:22;100780.16;;;6.23;64.43
67740;BME280;54536;50.090;14.420;2022-11-27T04:00:53;100778.22;;;6.09;64.63
67740;BME280;54536;50.090;14.420;2022-11-27T04:03:27;100786.22;;;6.24;64.97
67740;BME280;54536;50.090;14.420;2022-11-27T04:05:54;100788.09;;;5.84;65.50
67740;BME280;54536;50.090;14.420;2022-11-27T04:08:22;100788.16;;;6.01;65.41
67740;BME280;54536;50.090;14.420;2022-11-27T04:10:48;100788.47;;;5.95;65.60
67740;BME280;54536;50.090;14.420;2022-11-27T04:13:14;100784.00;;;5.97;65.68
67740;BME280;54536;50.090;14.420;2022-11-27T04:15:41;100785.69;;;5.98;66.19
67740;BME280;54536;50.090;14.420;2022-11-27T04:18:07;100784.00;;;5.97;66.05
67740;BME280;54536;50.090;14.420;2022-11-27T04:20:33;100788.59;;;5.92;65.56
67740;BME280;54536;50.090;14.420;2022-11-27T04:22:59;100783.81;;;6.02;65.39
67740;BME280;54536;50.090;14.420;2022-11-27T04:25:26;100777.38;;;6.09;65.37
67740;BME280;54536;50.090;14.420;2022-11-27T04:27:52;100788.25;;;6.00;65.34
67740;BME280;54536;50.090;14.420;2022-11-27T04:30:19;100782.47;;;5.93;65.09
67740;BME280;54536;50.090;14.420;2022-11-27T04:32:45;100786.31;;;5.84;65.26
67740;BME280;54536;50.090;14.420;2022-11-27T04:35:11;100777.50;;;5.87;65.37
67740;BME280;54536;50.090;14.420;2022-11-27T04:37:37;100775.44;;;5.95;65.32
67740;BME280;54536;50.090;14.420;2022-11-27T04:40:05;100769.00;;;6.02;65.06
67740;BME280;54536;50.090;14.420;2022-11-27T04:42:31;100768.59;;;6.10;64.99
67740;BME280;54536;50.090;14.420;2022-11-27T04:44:57;100774.56;;;5.95;65.80
67740;BME280;54536;50.090;14.420;2022-11-27T04:47:23;100768.69;;;6.08;64.49
67740;BME280;54536;50.090;14.420;2022-11-27T04:49:49;100771.59;;;5.83;65.48
67740;BME280;54536;50.090;14.420;2022-11-27T04:52:15;100770.94;;;5.78;65.37
67740;BME280;54536;50.090;14.420;2022-11-27T04:54:42;100776.94;;;5.61;65.31
67740;BME280;54536;50.090;14.420;2022-11-27T04:57:08;100771.72;;;5.43;66.22
67740;BME280;54536;50.090;14.420;2022-11-27T04:59:34;100769.75;;;5.67;65.68
67740;BME280;54536;50.090;14.420;2022-11-27T05:02:00;100771.72;;;5.61;65.55
67740;BME280;54536;50.090;14.420;2022-11-27T05:04:27;100773.22;;;5.67;66.46
67740;BME280;54536;50.090;14.420;2022-11-27T05:06:53;100765.53;;;5.64;65.47
67740;BME280;54536;50.090;14.420;2022-11-27T05:09:19;100766.34;;;5.46;65.64
67740;BME280;54536;50.090;14.420;2022-11-27T05:11:46;100773.78;;;5.55;65.57
67740;BME280;54536;50.090;14.420;2022-11-27T05:14:12;100778.69;;;5.23;66.30
67740;BME280;54536;50.090;14.420;2022-11-27T05:16:50;100770.59;;;5.48;65.62
67740;BME280;54536;50.090;14.420;2022-11-27T05:19:19;100772.28;;;5.68;66.11
67740;BME280;54536;50.090;14.420;2022-11-27T05:21:47;100777.94;;;5.78;65.17
67740;BME280;54536;50.090;14.420;2022-11-27T05:24:15;100764.19;;;5.55;65.71
67740;BME280;54536;50.090;14.420;2022-11-27T05:26:42;100765.66;;;5.61;64.88
67740;BME280;54536;50.090;14.420;2022-11-27T05:29:09;100770.66;;;5.84;64.89
67740;BME280;54536;50.090;14.420;2022-11-27T05:31:36;100774.91;;;5.68;65.21
67740;BME280;54536;50.090;14.420;2022-11-27T05:34:04;100773.78;;;5.74;65.20
67740;BME280;54536;50.090;14.420;2022-11-27T05:36:31;100768.69;;;5.71;65.18
67740;BME280;54536;50.090;14.420;2022-11-27T05:38:59;100766.16;;;5.69;65.40
67740;BME280;54536;50.090;14.420;2022-11-27T05:41:27;100775.81;;;5.86;65.76
67740;BME280;54536;50.090;14.420;2022-11-27T05:43:53;100771.19;;;5.93;64.56
67740;BME280;54536;50.090;14.420;2022-11-27T05:46:21;100766.88;;;5.73;64.40
67740;BME280;54536;50.090;14.420;2022-11-27T05:48:48;100766.16;;;5.69;64.94
67740;BME280;54536;50.090;14.420;2022-11-27T05:51:15;100763.47;;;5.52;66.05
67740;BME280;54536;50.090;14.420;2022-11-27T05:53:41;100765.94;;;5.74;65.05
67740;BME280;54536;50.090;14.420;2022-11-27T05:56:13;100773.69;;;5.75;64.19
67740;BME280;54536;50.090;14.420;2022-11-27T05:58:41;100781.38;;;5.78;64.95
67740;BME280;54536;50.090;14.420;2022-11-27T06:01:09;100775.53;;;5.92;64.51
67740;BME280;54536;50.090;14.420;2022-11-27T06:03:36;100778.22;;;5.53;65.60
67740;BME280;54536;50.090;14.420;2022-11-27T06:06:07;100776.31;;;5.56;65.56
67740;BME280;54536;50.090;14.420;2022-11-27T06:08:36;100784.47;;;5.49;65.68
67740;BME280;54536;50.090;14.420;2022-11-27T06:11:06;100789.28;;;5.58;65.28
67740;BME280;54536;50.090;14.420;2022-11-27T06:13:33;100780.47;;;5.60;65.54
67740;BME280;54536;50.090;14.420;2022-11-27T06:16:07;100787.03;;;5.50;65.50
67740;BME280;54536;50.090;14.420;2022-11-27T06:18:34;100783.00;;;5.62;65.99
67740;BME280;54536;50.090;14.420;2022-11-27T06:21:00;100783.78;;;5.83;65.56
67740;BME280;54536;50.090;14.420;2022-11-27T06:23:26;100786.19;;;5.87;64.74
67740;BME280;54536;50.090;14.420;2022-11-27T06:25:52;100789.84;;;5.83;64.74
67740;BME280;54536;50.090;14.420;2022-11-27T06:28:18;100790.13;;;5.77;65.09
67740;BME280;54536;50.090;14.420;2022-11-27T06:30:45;100789.53;;;5.72;66.24
67740;BME280;54536;50.090;14.420;2022-11-27T06:33:11;100797.75;;;5.82;64.97
67740;BME280;54536;50.090;14.420;2022-11-27T06:35:37;100799.16;;;5.89;64.76
67740;BME280;54536;50.090;14.420;2022-11-27T06:38:04;100793.47;;;6.00;64.47
67740;BME280;54536;50.090;14.420;2022-11-27T06:40:30;100797.41;;;5.71;64.99
67740;BME280;54536;50.090;14.420;2022-11-27T06:42:56;100779.84;;;5.55;66.03
67740;BME280;54536;50.090;14.420;2022-11-27T06:45:22;100782.31;;;5.77;65.24
67740;BME280;54536;50.090;14.420;2022-11-27T06:47:48;100777.03;;;5.60;65.60
67740;BME280;54536;50.090;14.420;2022-11-27T06:50:14;100784.22;;;5.74;65.36
67740;BME280;54536;50.090;14.420;2022-11-27T06:52:40;100777.66;;;5.84;64.65
67740;BME280;54536;50.090;14.420;2022-11-27T06:55:06;100776.38;;;5.74;65.06
67740;BME280;54536;50.090;14.420;2022-11-27T06:57:33;100775.88;;;6.03;64.30
67740;BME280;54536;50.090;14.420;2022-11-27T06:59:59;100776.84;;;5.82;64.51
67740;BME280;54536;50.090;14.420;2022-11-27T07:02:25;100770.47;;;5.70;65.10
67740;BME280;54536;50.090;14.420;2022-11-27T07:04:51;100771.31;;;5.71;64.91
67740;BME280;54536;50.090;14.420;2022-11-27T07:07:17;100768.22;;;5.62;64.67
67740;BME280;54536;50.090;14.420;2022-11-27T07:09:43;100771.25;;;5.53;65.81
67740;BME280;54536;50.090;14.420;2022-11-27T07:12:10;100777.22;;;5.74;64.68
67740;BME280;54536;50.090;14.420;2022-11-27T07:14:36;100779.13;;;5.52;65.20
67740;BME280;54536;50.090;14.420;2022-11-27T07:17:02;100778.69;;;5.42;65.29
67740;BME280;54536;50.090;14.420;2022-11-27T07:19:28;100777.69;;;5.26;65.33
67740;BME280;54536;50.090;14.420;2022-11-27T07:21:54;100771.88;;;5.39;64.41
67740;BME280;54536;50.090;14.420;2022-11-27T07:24:21;100767.28;;;5.45;64.82
67740;BME280;54536;50.090;14.420;2022-11-27T07:26:47;100761.38;;;5.60;64.66
67740;BME280;54536;50.090;14.420;2022-11-27T07:29:13;100758.81;;;5.58;64.60
67740;BME280;54536;50.090;14.420;2022-11-27T07:31:40;100755.19;;;5.62;64.02
67740;BME280;54536;50.090;14.420;2022-11-27T07:34:06;100757.94;;;5.59;64.12
67740;BME280;54536;50.090;14.420;2022-11-27T07:36:32;100747.63;;;5.37;64.94
67740;BME280;54536;50.090;14.420;2022-11-27T07:38:58;100748.31;;;5.41;64.95
67740;BME280;54536;50.090;14.420;2022-11-27T07:41:25;100748.19;;;5.44;64.84
67740;BME280;54536;50.090;14.420;2022-11-27T07:43:51;100741.69;;;5.34;65.24
67740;BME280;54536;50.090;14.420;2022-11-27T07:46:20;100744.78;;;5.42;64.48
67740;BME280;54536;50.090;14.420;2022-11-27T07:48:46;100745.78;;;5.39;65.21
67740;BME280;54536;50.090;14.420;2022-11-27T07:51:17;100757.53;;;5.29;66.18
67740;BME280;54536;50.090;14.420;2022-11-27T07:53:44;100749.41;;;5.56;64.97
67740;BME280;54536;50.090;14.420;2022-11-27T07:56:13;100752.13;;;5.34;64.86
67740;BME280;54536;50.090;14.420;2022-11-27T07:58:39;100750.16;;;5.58;64.89
67740;BME280;54536;50.090;14.420;2022-11-27T08:01:08;100745.56;;;5.44;64.45
67740;BME280;54536;50.090;14.420;2022-11-27T08:03:34;100748.59;;;5.54;64.42
67740;BME280;54536;50.090;14.420;2022-11-27T08:06:01;100747.06;;;5.31;64.38
67740;BME280;54536;50.090;14.420;2022-11-27T08:08:27;100745.56;;;5.25;64.70
67740;BME280;54536;50.090;14.420;2022-11-27T08:10:54;100752.63;;;5.23;64.86
67740;BME280;54536;50.090;14.420;2022-11-27T08:13:20;100739.91;;;5.15;64.36
67740;BME280;54536;50.090;14.420;2022-11-27T08:15:46;100747.31;;;5.25;64.87
67740;BME280;54536;50.090;14.420;2022-11-27T08:18:13;100749.00;;;5.26;65.11
67740;BME280;54536;50.090;14.420;2022-11-27T08:20:39;100747.25;;;5.26;65.32
67740;BME280;54536;50.090;14.420;2022-11-27T08:23:05;100746.69;;;5.38;64.16
67740;BME280;54536;50.090;14.420;2022-11-27T08:25:31;100748.94;;;5.27;65.42
67740;BME280;54536;50.090;14.420;2022-11-27T08:27:57;100742.31;;;5.20;65.48
67740;BME280;54536;50.090;14.420;2022-11-27T08:30:23;100738.09;;;5.18;64.88
67740;BME280;54536;50.090;14.420;2022-11-27T08:32:49;100737.03;;;5.40;64.79
67740;BME280;54536;50.090;14.420;2022-11-27T08:35:16;100728.38;;;5.21;65.09
67740;BME280;54536;50.090;14.420;2022-11-27T08:37:42;100735.53;;;4.97;65.40
67740;BME280;54536;50.090;14.420;2022-11-27T08:40:09;100730.38;;;4.96;65.55
67740;BME280;54536;50.090;14.420;2022-11-27T08:42:36;100721.25;;;5.25;65.72
67740;BME280;54536;50.090;14.420;2022-11-27T08:45:02;100728.41;;;5.20;65.41
67740;BME280;54536;50.090;14.420;2022-11-27T08:47:28;100734.50;;;5.39;65.66
67740;BME280;54536;50.090;14.420;2022-11-27T08:49:55;100728.78;;;5.31;65.52
67740;BME280;54536;50.090;14.420;2022-11-27T08:52:21;100726.09;;;5.32;66.29
67740;BME280;54536;50.090;14.420;2022-11-27T08:54:47;100723.88;;;5.44;67.08
67740;BME280;54536;50.090;14.420;2022-11-27T08:57:15;100724.72;;;5.63;65.92
67740;BME280;54536;50.090;14.420;2022-11-27T08:59:41;100724.34;;;5.52;65.66
67740;BME280;54536;50.090;14.420;2022-11-27T09:02:10;100729.69;;;5.68;65.00
67740;BME280;54536;50.090;14.420;2022-11-27T09:04:38;100724.75;;;5.61;65.48
67740;BME280;54536;50.090;14.420;2022-11-27T09:07:04;100716.66;;;5.68;65.15
67740;BME280;54536;50.090;14.420;2022-11-27T09:09:31;100721.50;;;5.75;65.50
67740;BME280;54536;50.090;14.420;2022-11-27T09:11:57;100723.63;;;5.86;65.34
67740;BME280;54536;50.090;14.420;2022-11-27T09:14:23;100722.84;;;6.03;65.21
67740;BME280;54536;50.090;14.420;2022-11-27T09:16:49;100719.38;;;6.02;64.09
67740;BME280;54536;50.090;14.420;2022-11-27T09:19:16;100724.56;;;6.21;64.62
67740;BME280;54536;50.090;14.420;2022-11-27T09:21:42;100720.81;;;6.08;63.13
67740;BME280;54536;50.090;14.420;2022-11-27T09:24:09;100718.09;;;5.92;64.05
67740;BME280;54536;50.090;14.420;2022-11-27T09:26:35;100729.81;;;6.02;64.23
67740;BME280;54536;50.090;14.420;2022-11-27T09:29:01;100731.94;;;5.94;64.40
67740;BME280;54536;50.090;14.420;2022-11-27T09:31:28;100728.50;;;5.94;64.26
67740;BME280;54536;50.090;14.420;2022-11-27T09:33:56;100731.59;;;6.02;64.42
67740;BME280;54536;50.090;14.420;2022-11-27T09:36:24;100720.91;;;5.87;65.42
67740;BME280;54536;50.090;14.420;2022-11-27T09:38:51;100729.03;;;5.81;64.89
67740;BME280;54536;50.090;14.420;2022-11-27T09:41:49;100728.59;;;6.09;64.50
67740;BME280;54536;50.090;14.420;2022-11-27T09:44:30;100725.59;;;5.81;65.85
67740;BME280;54536;50.090;14.420;2022-11-27T09:47:09;100727.56;;;5.95;65.25
67740;BME280;54536;50.090;14.420;2022-11-27T09:49:49;100715.16;;;5.81;65.10
67740;BME280;54536;50.090;14.420;2022-11-27T09:55:23;100704.34;;;5.89;65.51
67740;BME280;54536;50.090;14.420;2022-11-27T09:57:59;100705.94;;;6.10;64.63
67740;BME280;54536;50.090;14.420;2022-11-27T10:00:27;100702.94;;;6.00;64.64
67740;BME280;54536;50.090;14.420;2022-11-27T10:02:53;100704.63;;;6.01;65.27
67740;BME280;54536;50.090;14.420;2022-11-27T10:05:27;100699.47;;;6.17;64.34
67740;BME280;54536;50.090;14.420;2022-11-27T10:16:08;100674.59;;;6.27;64.61
67740;BME280;54536;50.090;14.420;2022-11-27T10:24:15;100660.16;;;6.38;64.63
67740;BME280;54536;50.090;14.420;2022-11-27T10:26:48;100656.53;;;6.57;64.26
67740;BME280;54536;50.090;14.420;2022-11-27T10:32:15;100642.91;;;6.68;63.36
67740;BME280;54536;50.090;14.420;2022-11-27T10:34:52;100643.31;;;6.61;64.06
67740;BME280;54536;50.090;14.420;2022-11-27T10:37:52;100641.06;;;6.70;63.17
67740;BME280;54536;50.090;14.420;2022-11-27T10:40:26;100637.16;;;6.62;63.53
67740;BME280;54536;50.090;14.420;2022-11-27T10:43:23;100636.78;;;6.52;63.73
67740;BME280;54536;50.090;14.420;2022-11-27T10:46:15;100633.97;;;6.72;63.19
67740;BME280;54536;50.090;14.420;2022-11-27T10:48:45;100639.97;;;6.74;63.82
67740;BME280;54536;50.090;14.420;2022-11-27T10:51:17;100634.25;;;6.84;63.40
67740;BME280;54536;50.090;14.420;2022-11-27T10:53:51;100634.94;;;7.03;62.74
67740;BME280;54536;50.090;14.420;2022-11-27T10:56:39;100631.13;;;7.09;63.36
67740;BME280;54536;50.090;14.420;2022-11-27T10:59:26;100625.88;;;6.93;62.58
67740;BME280;54536;50.090;14.420;2022-11-27T11:01:55;100617.66;;;7.16;63.41
67740;BME280;54536;50.090;14.420;2022-11-27T11:04:29;100606.75;;;7.24;62.41
67740;BME280;54536;50.090;14.420;2022-11-27T11:06:56;100610.72;;;7.31;62.84
67740;BME280;54536;50.090;14.420;2022-11-27T11:09:31;100609.81;;;7.16;62.53
67740;BME280;54536;50.090;14.420;2022-11-27T11:12:16;100611.00;;;7.26;62.81
67740;BME280;54536;50.090;14.420;2022-11-27T11:14:56;100612.75;;;7.10;62.27
67740;BME280;54536;50.090;14.420;2022-11-27T11:17:30;100609.38;;;7.24;63.52
67740;BME280;54536;50.090;14.420;2022-11-27T11:19:59;100606.16;;;7.19;61.90
67740;BME280;54536;50.090;14.420;2022-11-27T11:22:27;100603.31;;;7.08;62.64
67740;BME280;54536;50.090;14.420;2022-11-27T11:24:54;100598.56;;;6.98;63.35
67740;BME280;54536;50.090;14.420;2022-11-27T11:27:25;100593.19;;;7.01;62.67
67740;BME280;54536;50.090;14.420;2022-11-27T11:29:59;100588.63;;;7.05;62.54
67740;BME280;54536;50.090;14.420;2022-11-27T11:32:32;100595.19;;;7.12;62.75
67740;BME280;54536;50.090;14.420;2022-11-27T11:35:08;100591.56;;;6.99;63.00
67740;BME280;54536;50.090;14.420;2022-11-27T11:37:38;100590.28;;;7.06;63.21
67740;BME280;54536;50.090;14.420;2022-11-27T11:40:27;100586.44;;;7.13;62.42
67740;BME280;54536;50.090;14.420;2022-11-27T11:42:58;100589.78;;;7.15;63.30
67740;BME280;54536;50.090;14.420;2022-11-27T11:45:32;100589.78;;;7.15;62.44
67740;BME280;54536;50.090;14.420;2022-11-27T11:48:20;100584.84;;;7.11;63.49
67740;BME280;54536;50.090;14.420;2022-11-27T11:51:10;100579.47;;;7.44;63.95
67740;BME280;54536;50.090;14.420;2022-11-27T11:53:42;100571.13;;;7.53;62.88
67740;BME280;54536;50.090;14.420;2022-11-27T11:56:34;100567.06;;;7.47;63.95
67740;BME280;54536;50.090;14.420;2022-11-27T11:59:18;100563.91;;;7.57;63.50
67740;BME280;54536;50.090;14.420;2022-11-27T12:13:24;100559.53;;;7.57;62.69
67740;BME280;54536;50.090;14.420;2022-11-27T12:27:32;100547.25;;;7.43;64.04
67740;BME280;54536;50.090;14.420;2022-11-27T12:30:17;100551.97;;;7.37;64.14
67740;BME280;54536;50.090;14.420;2022-11-27T12:33:02;100541.72;;;7.48;64.04
67740;BME280;54536;50.090;14.420;2022-11-27T12:36:12;100547.03;;;7.62;62.75
67740;BME280;54536;50.090;14.420;2022-11-27T12:39:02;100533.03;;;7.78;62.95
67740;BME280;54536;50.090;14.420;2022-11-27T12:41:47;100535.34;;;7.68;62.58
67740;BME280;54536;50.090;14.420;2022-11-27T12:47:28;100537.84;;;7.85;62.04
67740;BME280;54536;50.090;14.420;2022-11-27T12:50:07;100540.81;;;7.79;62.61
67740;BME280;54536;50.090;14.420;2022-11-27T12:52:42;100536.78;;;7.88;63.63
67740;BME280;54536;50.090;14.420;2022-11-27T12:55:21;100540.38;;;8.01;63.36
67740;BME280;54536;50.090;14.420;2022-11-27T12:58:06;100528.50;;;7.95;62.62
67740;BME280;54536;50.090;14.420;2022-11-27T13:00:38;100535.97;;;8.02;62.31
67740;BME280;54536;50.090;14.420;2022-11-27T13:06:20;100528.06;;;8.17;61.68
67740;BME280;54536;50.090;14.420;2022-11-27T13:09:02;100524.31;;;8.21;61.69
67740;BME280;54536;50.090;14.420;2022-11-27T13:11:37;100520.56;;;8.26;61.65
67740;BME280;54536;50.090;14.420;2022-11-27T13:14:15;100517.75;;;8.14;61.51
67740;BME280;54536;50.090;14.420;2022-11-27T13:16:49;100505.19;;;8.19;61.63
67740;BME280;54536;50.090;14.420;2022-11-27T13:19:40;100502.78;;;8.31;64.46
67740;BME280;54536;50.090;14.420;2022-11-27T13:22:13;100507.16;;;8.16;62.20
67740;BME280;54536;50.090;14.420;2022-11-27T13:24:41;100493.88;;;8.19;62.01
67740;BME280;54536;50.090;14.420;2022-11-27T13:29:48;100482.47;;;8.49;63.33
67740;BME280;54536;50.090;14.420;2022-11-27T13:32:28;100475.94;;;8.41;61.88
67740;BME280;54536;50.090;14.420;2022-11-27T13:35:03;100463.19;;;8.50;61.58
67740;BME280;54536;50.090;14.420;2022-11-27T13:37:39;100463.63;;;8.56;61.56
67740;BME280;54536;50.090;14.420;2022-11-27T13:40:23;100459.50;;;8.66;66.18
67740;BME280;54536;50.090;14.420;2022-11-27T13:42:54;100454.50;;;8.76;62.10
67740;BME280;54536;50.090;14.420;2022-11-27T13:45:32;100455.00;;;8.68;61.73
67740;BME280;54536;50.090;14.420;2022-11-27T13:48:04;100449.84;;;8.67;61.71
67740;BME280;54536;50.090;14.420;2022-11-27T13:50:44;100458.38;;;8.71;60.98
67740;BME280;54536;50.090;14.420;2022-11-27T13:53:11;100461.66;;;8.60;62.25
67740;BME280;54536;50.090;14.420;2022-11-27T13:55:51;100458.75;;;8.64;62.07
67740;BME280;54536;50.090;14.420;2022-11-27T14:01:17;100448.97;;;8.54;62.16
67740;BME280;54536;50.090;14.420;2022-11-27T14:03:44;100440.91;;;8.57;61.51
67740;BME280;54536;50.090;14.420;2022-11-27T14:06:25;100437.41;;;8.56;62.14
67740;BME280;54536;50.090;14.420;2022-11-27T14:09:05;100429.84;;;8.52;62.25
67740;BME280;54536;50.090;14.420;2022-11-27T14:11:46;100421.22;;;8.64;62.94
67740;BME280;54536;50.090;14.420;2022-11-27T14:14:20;100423.09;;;8.62;62.49
67740;BME280;54536;50.090;14.420;2022-11-27T14:17:05;100416.06;;;8.62;62.06
67740;BME280;54536;50.090;14.420;2022-11-27T14:19:43;100420.84;;;8.56;62.99
67740;BME280;54536;50.090;14.420;2022-11-27T14:22:30;100412.28;;;8.39;62.99
67740;BME280;54536;50.090;14.420;2022-11-27T14:24:58;100406.91;;;8.55;63.52
67740;BME280;54536;50.090;14.420;2022-11-27T14:27:30;100413.19;;;8.53;62.82
67740;BME280;54536;50.090;14.420;2022-11-27T14:30:29;100410.47;;;8.54;62.86
67740;BME280;54536;50.090;14.420;2022-11-27T14:36:04;100407.94;;;8.53;63.02